createdAt,value
2018-07-22T00:02:06.099Z,5.80
2018-07-22T00:04:34.161Z,5.97
2018-07-22T00:07:02.242Z,5.10
2018-07-22T00:09:30.307Z,5.43
2018-07-22T00:11:58.371Z,5.30
2018-07-22T00:14:26.747Z,5.67
2018-07-22T00:16:54.816Z,6.00
2018-07-22T00:19:22.903Z,6.20
2018-07-22T00:21:50.975Z,5.30
2018-07-22T00:24:19.047Z,5.77
2018-07-22T00:26:47.148Z,6.00
2018-07-22T00:29:15.253Z,5.33
2018-07-22T00:31:43.307Z,6.00
2018-07-22T00:34:11.695Z,5.83
2018-07-22T00:36:39.955Z,5.53
2018-07-22T00:39:09.742Z,5.13
2018-07-22T00:41:37.894Z,6.00
2018-07-22T00:44:06.190Z,5.53
2018-07-22T00:46:34.255Z,5.30
2018-07-22T00:49:02.386Z,6.00
2018-07-22T00:51:30.487Z,5.47
2018-07-22T00:53:58.672Z,5.63
2018-07-22T00:56:26.826Z,5.87
2018-07-22T00:58:54.894Z,5.80
2018-07-22T01:01:23.231Z,5.43
2018-07-22T01:03:51.302Z,6.03
2018-07-22T01:06:19.679Z,5.47
2018-07-22T01:08:47.763Z,5.60
2018-07-22T01:11:15.822Z,5.53
2018-07-22T01:13:43.920Z,5.37
2018-07-22T01:16:12.006Z,6.03
2018-07-22T01:18:40.082Z,5.23
2018-07-22T01:21:08.139Z,6.00
2018-07-22T01:23:36.246Z,6.00
2018-07-22T01:26:04.343Z,5.47
2018-07-22T01:28:32.414Z,6.20
2018-07-22T01:31:00.714Z,5.83
2018-07-22T01:33:28.902Z,6.00
2018-07-22T01:35:56.978Z,5.67
2018-07-22T01:38:25.061Z,5.33
2018-07-22T01:40:53.114Z,6.20
2018-07-22T01:43:21.291Z,5.17
2018-07-22T01:45:49.418Z,6.47
2018-07-22T01:48:17.482Z,5.47
2018-07-22T01:50:45.542Z,5.70
2018-07-22T01:53:13.612Z,5.50
2018-07-22T01:55:41.679Z,5.67
2018-07-22T01:58:09.754Z,6.03
2018-07-22T02:00:38.126Z,5.97
2018-07-22T02:03:06.203Z,5.67
2018-07-22T02:05:34.331Z,5.70
2018-07-22T02:08:02.431Z,6.13
2018-07-22T02:10:30.535Z,5.67
2018-07-22T02:12:58.619Z,5.70
2018-07-22T02:15:26.983Z,5.63
2018-07-22T02:17:55.043Z,5.53
2018-07-22T02:20:24.319Z,5.77
2018-07-22T02:22:52.416Z,5.50
2018-07-22T02:25:20.470Z,6.13
2018-07-22T02:27:48.534Z,5.43
2018-07-22T02:30:16.661Z,5.50
2018-07-22T02:32:44.791Z,6.10
2018-07-22T02:35:12.851Z,5.87
2018-07-22T02:37:40.950Z,4.90
2018-07-22T02:40:09.017Z,6.10
2018-07-22T02:42:37.091Z,5.97
2018-07-22T02:45:05.295Z,5.93
2018-07-22T02:47:33.700Z,5.77
2018-07-22T02:50:01.788Z,5.70
2018-07-22T02:52:29.863Z,5.77
2018-07-22T02:54:58.248Z,6.00
2018-07-22T02:57:26.328Z,6.13
2018-07-22T02:59:54.523Z,6.50
2018-07-22T03:02:22.599Z,6.20
2018-07-22T03:04:50.702Z,5.87
2018-07-22T03:07:18.791Z,5.90
2018-07-22T03:09:47.289Z,5.90
2018-07-22T03:12:15.375Z,6.03
2018-07-22T03:14:43.464Z,5.63
2018-07-22T03:17:12.112Z,5.83
2018-07-22T03:19:40.194Z,5.80
2018-07-22T03:22:08.295Z,6.67
2018-07-22T03:24:36.839Z,5.97
2018-07-22T03:27:05.429Z,6.47
2018-07-22T03:29:33.502Z,6.00
2018-07-22T03:32:01.579Z,5.70
2018-07-22T03:34:29.666Z,6.03
2018-07-22T03:36:57.774Z,5.60
2018-07-22T03:39:25.870Z,5.97
2018-07-22T03:41:53.954Z,5.77
2018-07-22T03:44:22.054Z,5.83
2018-07-22T03:46:50.146Z,6.00
2018-07-22T03:49:18.232Z,6.27
2018-07-22T03:51:46.307Z,5.60
2018-07-22T03:54:14.407Z,5.60
2018-07-22T03:56:42.478Z,5.90
2018-07-22T03:59:10.567Z,5.67
2018-07-22T04:01:38.646Z,6.03
2018-07-22T04:04:06.763Z,5.23
2018-07-22T04:06:35.079Z,5.17
2018-07-22T04:09:03.287Z,5.00
2018-07-22T04:11:31.411Z,5.70
2018-07-22T04:13:59.492Z,5.93
2018-07-22T04:16:27.566Z,5.50
2018-07-22T04:18:55.647Z,5.47
2018-07-22T04:21:24.572Z,5.27
2018-07-22T04:23:52.627Z,5.37
2018-07-22T04:26:21.502Z,5.43
2018-07-22T04:28:50.083Z,5.80
2018-07-22T04:31:18.184Z,5.03
2018-07-22T04:33:46.310Z,4.90
2018-07-22T04:36:14.399Z,5.03
2018-07-22T04:38:42.478Z,5.30
2018-07-22T04:41:10.596Z,5.33
2018-07-22T04:43:38.895Z,4.97
2018-07-22T04:46:07.298Z,5.70
2018-07-22T04:48:35.378Z,5.30
2018-07-22T04:51:03.455Z,5.40
2018-07-22T04:53:31.587Z,5.27
2018-07-22T04:55:59.607Z,5.47
2018-07-22T04:58:27.714Z,5.30
2018-07-22T05:00:55.874Z,5.27
2018-07-22T05:03:23.966Z,5.03
2018-07-22T05:05:52.043Z,5.10
2018-07-22T05:08:20.138Z,5.60
2018-07-22T05:10:48.221Z,5.07
2018-07-22T05:13:16.293Z,5.37
2018-07-22T05:15:44.381Z,5.27
2018-07-22T05:18:12.736Z,4.97
2018-07-22T05:20:40.914Z,5.07
2018-07-22T05:23:08.995Z,5.03
2018-07-22T05:25:37.115Z,4.87
2018-07-22T05:28:05.190Z,5.03
2018-07-22T05:30:33.275Z,4.97
2018-07-22T05:33:01.347Z,5.13
2018-07-22T05:35:29.438Z,5.13
2018-07-22T05:37:57.506Z,4.90
2018-07-22T05:40:25.593Z,4.90
2018-07-22T05:42:53.663Z,5.33
2018-07-22T05:45:21.743Z,5.30
2018-07-22T05:47:49.818Z,4.60
2018-07-22T05:50:17.903Z,4.27
2018-07-22T05:52:45.967Z,4.87
2018-07-22T05:55:14.051Z,5.13
2018-07-22T05:57:42.136Z,4.80
2018-07-22T06:00:10.220Z,4.80
2018-07-22T06:02:38.531Z,4.50
2018-07-22T06:05:06.880Z,4.90
2018-07-22T06:07:34.966Z,4.80
2018-07-22T06:10:03.075Z,4.73
2018-07-22T06:12:31.290Z,4.60
2018-07-22T06:14:59.372Z,4.60
2018-07-22T06:17:27.450Z,4.60
2018-07-22T06:19:55.539Z,4.60
2018-07-22T06:22:23.618Z,4.53
2018-07-22T06:24:51.698Z,4.70
2018-07-22T06:27:19.779Z,4.80
2018-07-22T06:29:47.843Z,4.10
2018-07-22T06:32:15.930Z,4.40
2018-07-22T06:34:44.003Z,5.20
2018-07-22T06:37:12.101Z,4.60
2018-07-22T06:39:40.426Z,4.83
2018-07-22T06:42:08.535Z,4.37
2018-07-22T06:44:36.622Z,4.83
2018-07-22T06:47:04.718Z,4.70
2018-07-22T06:49:32.792Z,4.80
2018-07-22T06:52:00.887Z,4.77
2018-07-22T06:54:29.015Z,4.53
2018-07-22T06:56:57.123Z,4.53
2018-07-22T06:59:25.235Z,4.37
2018-07-22T07:01:53.326Z,4.90
2018-07-22T07:04:21.415Z,4.37
2018-07-22T07:06:49.503Z,4.10
2018-07-22T07:09:17.567Z,4.60
2018-07-22T07:11:45.914Z,4.03
2018-07-22T07:14:14.007Z,4.63
2018-07-22T07:16:42.091Z,6.50
2018-07-22T07:19:10.163Z,5.40
2018-07-22T07:21:38.243Z,5.20
2018-07-22T07:24:06.307Z,5.13
2018-07-22T07:26:34.433Z,5.83
2018-07-22T07:29:02.467Z,6.23
2018-07-22T07:31:30.549Z,6.57
2018-07-22T07:33:58.654Z,6.33
2018-07-22T07:36:26.732Z,6.40
2018-07-22T07:38:54.805Z,6.53
2018-07-22T07:41:22.896Z,6.80
2018-07-22T07:43:50.970Z,7.07
2018-07-22T07:46:19.191Z,6.33
2018-07-22T07:48:47.256Z,6.67
2018-07-22T07:51:15.326Z,6.30
2018-07-22T07:53:43.399Z,7.37
2018-07-22T07:56:11.494Z,6.60
2018-07-22T07:58:39.559Z,6.53
2018-07-22T08:01:07.496Z,6.00
2018-07-22T08:03:35.588Z,6.27
2018-07-22T08:06:03.663Z,5.90
2018-07-22T08:08:31.926Z,7.50
2018-07-22T08:11:00.019Z,6.90
2018-07-22T08:13:27.913Z,7.67
2018-07-22T08:15:56.647Z,6.77
2018-07-22T08:18:25.171Z,5.70
2018-07-22T08:20:53.338Z,6.10
2018-07-22T08:23:21.418Z,6.83
2018-07-22T08:25:49.596Z,6.57
2018-07-22T08:28:29.226Z,6.60
2018-07-22T08:30:57.599Z,6.13
2018-07-22T08:33:25.784Z,6.20
2018-07-22T08:35:53.983Z,6.33
2018-07-22T08:38:22.090Z,6.67
2018-07-22T08:40:50.487Z,6.43
2018-07-22T08:43:18.615Z,6.20
2018-07-22T08:45:46.904Z,6.57
2018-07-22T08:48:15.279Z,5.87
2018-07-22T08:50:43.367Z,6.03
2018-07-22T08:53:11.506Z,6.33
2018-07-22T08:55:39.590Z,6.40
2018-07-22T08:58:07.982Z,6.20
2018-07-22T09:00:36.436Z,5.97
2018-07-22T09:03:04.979Z,6.13
2018-07-22T09:05:33.125Z,6.33
2018-07-22T09:08:01.160Z,6.17
2018-07-22T09:10:29.292Z,6.70
2018-07-22T09:12:57.510Z,6.97
2018-07-22T09:15:25.603Z,6.90
2018-07-22T09:17:53.749Z,6.97
2018-07-22T09:20:22.000Z,6.00
2018-07-22T09:22:50.092Z,5.97
2018-07-22T09:25:18.190Z,6.27
2018-07-22T09:27:46.269Z,6.50
2018-07-22T09:30:14.369Z,6.57
2018-07-22T09:32:42.478Z,6.47
2018-07-22T09:35:10.562Z,5.90
2018-07-22T09:37:38.659Z,6.40
2018-07-22T09:40:06.887Z,5.97
2018-07-22T09:42:35.026Z,6.23
2018-07-22T09:45:03.115Z,5.90
2018-07-22T09:47:31.216Z,6.00
2018-07-22T09:49:59.319Z,5.93
2018-07-22T09:52:27.415Z,5.63
2018-07-22T09:54:55.509Z,5.47
2018-07-22T09:57:23.567Z,5.53
2018-07-22T09:59:51.651Z,5.50
2018-07-22T10:02:19.751Z,4.70
2018-07-22T10:04:47.898Z,6.10
2018-07-22T10:07:15.957Z,6.00
2018-07-22T10:09:44.112Z,5.67
2018-07-22T10:12:13.003Z,6.07
2018-07-22T10:14:41.129Z,5.10
2018-07-22T10:17:09.197Z,5.10
2018-07-22T10:19:37.254Z,4.97
2018-07-22T10:22:05.677Z,5.67
2018-07-22T10:24:33.869Z,5.97
2018-07-22T10:27:02.460Z,5.27
2018-07-22T10:29:30.547Z,5.17
2018-07-22T10:31:58.655Z,5.00
2018-07-22T10:34:26.747Z,5.90
2018-07-22T10:36:54.819Z,4.80
2018-07-22T10:39:22.903Z,5.07
2018-07-22T10:41:50.983Z,5.30
2018-07-22T10:44:19.083Z,5.40
2018-07-22T10:46:47.155Z,5.30
2018-07-22T10:49:15.242Z,4.87
2018-07-22T10:51:43.535Z,5.17
2018-07-22T10:54:11.643Z,4.97
2018-07-22T10:56:40.087Z,4.97
2018-07-22T10:59:08.183Z,5.10
2018-07-22T11:01:36.267Z,4.90
2018-07-22T11:04:04.406Z,4.90
2018-07-22T11:06:32.502Z,5.00
2018-07-22T11:09:00.606Z,4.20
2018-07-22T11:11:28.699Z,4.97
2018-07-22T11:13:56.778Z,4.50
2018-07-22T11:16:24.866Z,4.47
2018-07-22T11:18:52.976Z,4.47
2018-07-22T11:21:21.471Z,4.53
2018-07-22T11:23:49.518Z,4.37
2018-07-22T11:26:17.610Z,4.70
2018-07-22T11:28:45.725Z,4.07
2018-07-22T11:31:13.762Z,4.30
2018-07-22T11:33:41.855Z,4.30
2018-07-22T11:36:09.928Z,4.00
2018-07-22T11:38:38.007Z,4.80
2018-07-22T11:41:06.171Z,3.80
2018-07-22T11:43:34.260Z,4.27
2018-07-22T11:46:02.715Z,4.40
2018-07-22T11:48:30.794Z,4.20
2018-07-22T11:50:58.871Z,4.63
2018-07-22T11:53:27.024Z,4.63
2018-07-22T11:55:55.250Z,4.20
2018-07-22T11:58:23.371Z,3.97
2018-07-22T12:00:51.464Z,4.53
2018-07-22T12:03:20.375Z,4.57
2018-07-22T12:05:48.768Z,4.17
2018-07-22T12:08:16.823Z,4.30
2018-07-22T12:10:44.894Z,4.23
2018-07-22T12:13:13.019Z,4.10
2018-07-22T12:15:41.246Z,4.57
2018-07-22T12:18:09.330Z,4.37
2018-07-22T12:20:37.414Z,4.27
2018-07-22T12:23:05.519Z,4.07
2018-07-22T12:25:33.881Z,3.67
2018-07-22T12:28:01.972Z,4.33
2018-07-22T12:30:30.043Z,3.97
2018-07-22T12:32:58.126Z,4.03
2018-07-22T12:35:26.203Z,4.20
2018-07-22T12:37:54.482Z,4.20
2018-07-22T12:40:22.585Z,4.67
2018-07-22T12:42:50.627Z,4.27
2018-07-22T12:45:18.703Z,4.47
2018-07-22T12:47:46.771Z,3.70
2018-07-22T12:50:14.884Z,3.70
2018-07-22T12:52:42.790Z,3.60
2018-07-22T12:55:11.130Z,4.23
2018-07-22T12:57:39.195Z,3.87
2018-07-22T13:00:07.411Z,3.93
2018-07-22T13:02:35.591Z,3.70
2018-07-22T13:05:03.723Z,3.77
2018-07-22T13:07:31.834Z,3.27
2018-07-22T13:09:59.918Z,3.27
2018-07-22T13:12:28.000Z,3.70
2018-07-22T13:14:56.083Z,3.60
2018-07-22T13:17:24.179Z,3.47
2018-07-22T13:19:52.404Z,3.90
2018-07-22T13:22:20.506Z,3.70
2018-07-22T13:24:48.588Z,3.30
2018-07-22T13:27:16.906Z,3.73
2018-07-22T13:29:45.016Z,3.50
2018-07-22T13:32:13.410Z,3.10
2018-07-22T13:34:41.523Z,3.23
2018-07-22T13:37:09.598Z,3.10
2018-07-22T13:39:37.707Z,3.20
2018-07-22T13:42:05.808Z,3.23
2018-07-22T13:44:33.875Z,3.33
2018-07-22T13:47:01.958Z,3.27
2018-07-22T13:49:30.028Z,3.33
2018-07-22T13:51:58.279Z,3.60
2018-07-22T13:54:26.343Z,3.27
2018-07-22T13:56:54.487Z,3.37
2018-07-22T13:59:22.610Z,3.53
2018-07-22T14:01:50.935Z,2.90
2018-07-22T14:04:19.054Z,3.20
2018-07-22T14:06:47.221Z,3.43
2018-07-22T14:09:15.306Z,3.20
2018-07-22T14:11:43.650Z,3.20
2018-07-22T14:14:11.750Z,2.80
2018-07-22T14:16:39.831Z,3.03
2018-07-22T14:19:08.006Z,3.10
2018-07-22T14:21:36.144Z,2.90
2018-07-22T14:24:04.176Z,3.30
2018-07-22T14:26:32.282Z,3.20
2018-07-22T14:29:00.397Z,3.10
2018-07-22T14:31:28.486Z,2.80
2018-07-22T14:33:56.563Z,3.07
2018-07-22T14:36:24.643Z,2.90
2018-07-22T14:38:52.711Z,3.20
2018-07-22T14:41:20.783Z,3.17
2018-07-22T14:43:48.878Z,2.97
2018-07-22T14:46:17.066Z,2.90
2018-07-22T14:48:45.138Z,3.00
2018-07-22T14:51:13.288Z,3.03
2018-07-22T14:53:41.388Z,3.87
2018-07-22T14:56:09.455Z,3.00
2018-07-22T14:58:37.537Z,3.17
2018-07-22T15:01:05.619Z,2.90
2018-07-22T15:03:33.723Z,3.10
2018-07-22T15:06:01.818Z,3.07
2018-07-22T15:08:29.895Z,2.97
2018-07-22T15:10:57.983Z,3.00
2018-07-22T15:13:26.059Z,3.13
2018-07-22T15:15:54.234Z,3.00
2018-07-22T15:18:22.388Z,2.67
2018-07-22T15:20:50.454Z,3.50
2018-07-22T15:23:18.541Z,2.93
2018-07-22T15:25:46.635Z,2.63
2018-07-22T15:28:14.706Z,2.80
2018-07-22T15:30:42.647Z,3.00
2018-07-22T15:33:10.735Z,3.63
2018-07-22T15:35:38.799Z,3.10
2018-07-22T15:38:06.903Z,3.53
2018-07-22T15:40:34.986Z,3.00
2018-07-22T15:43:03.070Z,3.17
2018-07-22T15:45:31.130Z,3.73
2018-07-22T15:47:59.214Z,3.33
2018-07-22T15:50:27.306Z,3.03
2018-07-22T15:52:55.402Z,3.40
2018-07-22T15:55:23.633Z,3.10
2018-07-22T15:57:51.578Z,3.30
2018-07-22T16:00:19.661Z,3.70
2018-07-22T16:02:47.734Z,3.77
2018-07-22T16:05:15.825Z,3.40
2018-07-22T16:07:43.900Z,3.50
2018-07-22T16:10:12.079Z,3.23
2018-07-22T16:12:40.162Z,3.10
2018-07-22T16:15:08.259Z,3.33
2018-07-22T16:17:36.342Z,2.90
2018-07-22T16:20:04.422Z,2.97
2018-07-22T16:22:32.570Z,3.20
2018-07-22T16:25:00.647Z,3.03
2018-07-22T16:27:28.727Z,3.40
2018-07-22T16:29:57.098Z,3.87
2018-07-22T16:32:25.179Z,3.20
2018-07-22T16:34:53.242Z,3.10
2018-07-22T16:37:21.316Z,3.30
2018-07-22T16:39:49.427Z,3.17
2018-07-22T16:42:17.541Z,2.57
2018-07-22T16:44:45.589Z,3.53
2018-07-22T16:47:13.466Z,7.13
2018-07-22T16:49:41.551Z,3.90
2018-07-22T16:52:09.623Z,10.07
2018-07-22T16:54:37.686Z,4.37
2018-07-22T16:57:05.767Z,6.97
2018-07-22T16:59:33.844Z,5.37
2018-07-22T17:02:01.919Z,3.93
2018-07-22T17:04:29.994Z,3.70
2018-07-22T17:06:58.062Z,3.40
2018-07-22T17:09:26.136Z,3.53
2018-07-22T17:11:54.198Z,3.27
2018-07-22T17:14:22.287Z,3.80
2018-07-22T17:16:50.354Z,3.90
2018-07-22T17:19:18.430Z,3.30
2018-07-22T17:21:46.508Z,2.93
2018-07-22T17:24:14.594Z,2.80
2018-07-22T17:26:42.675Z,1.87
2018-07-22T17:29:10.752Z,2.47
2018-07-22T17:31:38.830Z,2.10
2018-07-22T17:34:07.020Z,2.50
2018-07-22T17:36:35.098Z,1.97
2018-07-22T17:39:03.234Z,2.00
2018-07-22T17:41:31.332Z,2.00
2018-07-22T17:43:59.399Z,1.70
2018-07-22T17:46:27.465Z,1.80
2018-07-22T17:48:55.847Z,3.00
2018-07-22T17:51:23.919Z,2.50
2018-07-22T17:53:52.012Z,2.10
2018-07-22T17:56:20.079Z,2.03
2018-07-22T17:58:48.162Z,1.93
2018-07-22T18:01:16.235Z,1.80
2018-07-22T18:03:44.318Z,2.20
2018-07-22T18:06:12.398Z,2.40
2018-07-22T18:08:40.479Z,2.40
2018-07-22T18:11:08.570Z,2.30
2018-07-22T18:13:36.898Z,2.10
2018-07-22T18:16:05.195Z,2.10
2018-07-22T18:18:33.275Z,1.80
2018-07-22T18:21:01.349Z,2.20
2018-07-22T18:23:29.419Z,2.00
2018-07-22T18:25:57.285Z,1.70
2018-07-22T18:28:25.358Z,2.17
2018-07-22T18:30:53.442Z,2.10
2018-07-22T18:33:21.647Z,2.10
2018-07-22T18:35:49.722Z,2.30
2018-07-22T18:38:17.808Z,2.13
2018-07-22T18:40:46.099Z,1.97
2018-07-22T18:43:14.182Z,2.00
2018-07-22T18:45:42.250Z,2.03
2018-07-22T18:48:10.335Z,1.80
2018-07-22T18:50:38.407Z,2.00
2018-07-22T18:53:06.496Z,2.03
2018-07-22T18:55:34.584Z,2.07
2018-07-22T18:58:02.667Z,2.37
2018-07-22T19:00:30.759Z,2.33
2018-07-22T19:02:58.843Z,2.10
2018-07-22T19:05:27.297Z,1.87
2018-07-22T19:07:55.335Z,2.33
2018-07-22T19:10:23.422Z,2.30
2018-07-22T19:12:51.507Z,2.53
2018-07-22T19:15:19.598Z,2.40
2018-07-22T19:17:47.670Z,2.27
2018-07-22T19:20:15.763Z,2.57
2018-07-22T19:22:43.835Z,2.13
2018-07-22T19:25:12.167Z,2.47
2018-07-22T19:27:40.239Z,2.50
2018-07-22T19:30:08.340Z,2.10
2018-07-22T19:32:36.420Z,2.20
2018-07-22T19:35:04.542Z,2.63
2018-07-22T19:37:32.851Z,2.30
2018-07-22T19:40:01.212Z,2.27
2018-07-22T19:42:29.227Z,2.50
2018-07-22T19:44:57.304Z,2.30
2018-07-22T19:47:25.372Z,2.37
2018-07-22T19:49:53.450Z,2.40
2018-07-22T19:52:21.514Z,2.30
2018-07-22T19:54:49.595Z,2.00
2018-07-22T19:57:17.676Z,2.40
2018-07-22T19:59:45.813Z,2.33
2018-07-22T20:02:13.728Z,2.43
2018-07-22T20:04:41.811Z,2.80
2018-07-22T20:07:09.874Z,3.13
2018-07-22T20:09:37.959Z,2.00
2018-07-22T20:12:05.910Z,2.87
2018-07-22T20:14:34.023Z,1.97
2018-07-22T20:17:02.096Z,2.63
2018-07-22T20:19:30.162Z,2.37
2018-07-22T20:21:58.256Z,2.40
2018-07-22T20:24:26.385Z,2.40
2018-07-22T20:26:54.399Z,3.47
2018-07-22T20:29:22.494Z,3.00
2018-07-22T20:31:50.601Z,3.33
2018-07-22T20:34:18.679Z,2.80
2018-07-22T20:36:46.782Z,3.03
2018-07-22T20:39:14.868Z,2.80
2018-07-22T20:41:43.219Z,3.67
2018-07-22T20:44:11.292Z,2.53
2018-07-22T20:46:39.366Z,2.73
2018-07-22T20:49:07.454Z,2.80
2018-07-22T20:51:35.515Z,2.57
2018-07-22T20:54:03.615Z,3.10
2018-07-22T20:56:31.700Z,3.07
2018-07-22T20:58:59.771Z,2.33
2018-07-22T21:01:27.869Z,2.60
2018-07-22T21:03:56.005Z,2.20
2018-07-22T21:06:24.141Z,2.20
2018-07-22T21:08:52.185Z,2.97
2018-07-22T21:11:20.270Z,3.40
2018-07-22T21:13:48.339Z,2.97
2018-07-22T21:16:16.422Z,2.90
2018-07-22T21:18:44.499Z,2.50
2018-07-22T21:21:12.579Z,2.60
2018-07-22T21:23:40.666Z,2.50
2018-07-22T21:26:08.747Z,2.53
2018-07-22T21:28:36.815Z,2.50
2018-07-22T21:31:04.990Z,2.40
2018-07-22T21:33:33.064Z,2.50
2018-07-22T21:36:01.145Z,2.63
2018-07-22T21:38:29.219Z,2.37
2018-07-22T21:40:57.303Z,2.70
2018-07-22T21:43:25.383Z,2.10
2018-07-22T21:45:53.708Z,2.33
2018-07-22T21:48:21.895Z,2.00
2018-07-22T21:50:50.072Z,2.47
2018-07-22T21:53:18.151Z,2.53
2018-07-22T21:55:46.251Z,2.37
2018-07-22T21:58:14.323Z,2.20
2018-07-22T22:00:44.341Z,2.70
2018-07-22T22:03:12.419Z,2.43
2018-07-22T22:05:40.500Z,2.50
2018-07-22T22:08:08.571Z,2.30
2018-07-22T22:10:36.647Z,2.27
2018-07-22T22:13:04.714Z,2.10
2018-07-22T22:15:33.240Z,2.40
2018-07-22T22:18:02.615Z,2.27
2018-07-22T22:20:30.991Z,2.10
2018-07-22T22:22:59.163Z,2.27
2018-07-22T22:25:27.290Z,2.10
2018-07-22T22:27:55.374Z,2.60
2018-07-22T22:30:23.446Z,2.30
2018-07-22T22:32:51.522Z,3.00
2018-07-22T22:35:19.595Z,2.17
2018-07-22T22:37:48.048Z,2.33
2018-07-22T22:40:16.470Z,2.93
2018-07-22T22:42:45.578Z,2.47
2018-07-22T22:45:14.321Z,2.87
2018-07-22T22:47:42.391Z,2.70
2018-07-22T22:50:10.470Z,2.90
2018-07-22T22:52:38.536Z,2.57
2018-07-22T22:55:06.874Z,3.10
2018-07-22T22:57:34.959Z,3.00
2018-07-22T23:00:04.050Z,2.90
2018-07-22T23:02:34.183Z,2.87
2018-07-22T23:05:02.292Z,3.63
2018-07-22T23:07:30.419Z,2.90
2018-07-22T23:09:58.510Z,3.03
2018-07-22T23:12:26.596Z,3.00
2018-07-22T23:14:54.671Z,2.87
2018-07-22T23:17:22.759Z,2.63
2018-07-22T23:19:50.826Z,2.87
2018-07-22T23:22:19.205Z,3.07
2018-07-22T23:24:47.329Z,2.50
2018-07-22T23:27:15.409Z,2.60
2018-07-22T23:29:43.474Z,2.20
2018-07-22T23:32:11.859Z,2.73
2018-07-22T23:34:40.021Z,3.00
2018-07-22T23:37:08.090Z,2.10
2018-07-22T23:39:36.167Z,2.30
2018-07-22T23:42:04.243Z,2.17
2018-07-22T23:44:32.315Z,2.70
2018-07-22T23:47:00.395Z,2.40
2018-07-22T23:49:28.466Z,2.77
2018-07-22T23:51:56.543Z,2.57
2018-07-22T23:54:24.684Z,2.80
2018-07-22T23:56:52.772Z,2.37
2018-07-22T23:59:20.894Z,2.87
